Time;durP1;ratioP1;P1;durP2;ratioP2;P2;SDS_P1;SDS_P2;PMS_P1;PMS_P2;Temp;Humidity;BMP_temperature;BMP_pressure;BME280_temperature;BME280_humidity;BME280_pressure;Samples;Min_cycle;Max_cycle;Signal;HPM_P1;HPM_P2
2021/07/20 00:03:29;;;;;;;14.97;9.50;;;;;;;17.13;87.23;99311.19;10458951;28;20232;-77
2021/07/20 00:08:48;;;;;;;13.63;9.63;;;;;;;17.01;88.55;99311.88;10458749;28;20176;-77
2021/07/20 00:14:07;;;;;;;14.80;10.40;;;;;;;16.97;88.73;99303.63;10441641;28;20210;-77
2021/07/20 00:19:25;;;;;;;12.40;8.77;;;;;;;16.87;89.78;99310.28;10457479;28;20676;-77
2021/07/20 00:24:44;;;;;;;14.13;9.70;;;;;;;16.70;90.98;99321.81;10418314;28;20274;-75
2021/07/20 00:30:04;;;;;;;14.90;10.20;;;;;;;16.60;91.89;99310.97;10414886;28;20273;-75
2021/07/20 00:35:24;;;;;;;21.43;10.47;;;;;;;16.54;93.39;99310.69;10416484;28;20180;-74
2021/07/20 00:40:43;;;;;;;15.93;9.73;;;;;;;16.39;94.45;99314.25;10416191;28;20164;-77
2021/07/20 00:46:03;;;;;;;16.00;9.23;;;;;;;16.27;94.73;99303.78;10415041;28;20176;-77
2021/07/20 00:51:22;;;;;;;17.27;10.27;;;;;;;16.29;94.80;99304.16;10415782;28;20211;-77
2021/07/20 00:56:41;;;;;;;18.77;9.77;;;;;;;16.34;94.29;99300.88;10440140;28;20258;-76
2021/07/20 01:02:00;;;;;;;15.17;9.57;;;;;;;16.38;93.39;99304.34;10456100;28;20187;-77
2021/07/20 01:07:20;;;;;;;14.47;10.43;;;;;;;16.28;94.88;99302.56;10441403;28;20179;-76
2021/07/20 01:12:42;;;;;;;15.50;9.47;;;;;;;16.12;95.71;99291.44;10439717;28;20210;-79
2021/07/20 01:18:02;;;;;;;13.83;10.50;;;;;;;15.98;96.08;99294.53;10456161;28;20175;-77
2021/07/20 01:23:32;;;;;;;22.53;10.70;;;;;;;15.88;96.13;99287.22;10428546;28;20179;-79
2021/07/20 01:28:53;;;;;;;14.30;10.37;;;;;;;15.86;96.40;99281.31;10413128;28;20231;-77
2021/07/20 01:34:13;;;;;;;14.80;10.80;;;;;;;15.87;96.09;99284.88;10414127;28;20685;-78
2021/07/20 01:39:35;;;;;;;20.43;11.20;;;;;;;15.85;95.89;99282.53;10399683;28;20251;-79
2021/07/20 01:44:56;;;;;;;17.83;10.63;;;;;;;15.80;96.20;99288.59;10413227;28;20171;-78
2021/07/20 01:50:17;;;;;;;19.87;11.20;;;;;;;15.70;97.58;99289.59;10399453;28;20204;-76
2021/07/20 01:55:36;;;;;;;12.57;9.63;;;;;;;15.66;96.73;99291.66;10447375;28;20179;-78
2021/07/20 02:00:59;;;;;;;13.27;10.00;;;;;;;15.65;96.61;99275.44;10453955;28;20184;-78
2021/07/20 02:12:00;;;;;;;13.13;9.43;;;;;;;15.70;100.00;99283.28;10452793;28;20199;-79
2021/07/20 02:17:21;;;;;;;15.83;10.53;;;;;;;15.65;100.00;99284.56;10455187;28;20183;-77
2021/07/20 02:22:41;;;;;;;19.40;10.67;;;;;;;15.62;100.00;99287.41;10439834;28;20180;-78
2021/07/20 02:28:01;;;;;;;12.50;9.37;;;;;;;15.52;100.00;99278.06;10453440;28;20214;-80
2021/07/20 02:33:22;;;;;;;12.33;8.90;;;;;;;15.47;100.00;99281.34;10454243;28;20594;-80
2021/07/20 02:38:43;;;;;;;16.40;10.70;;;;;;;15.56;100.00;99295.44;10454777;28;20251;-80
2021/07/20 02:44:04;;;;;;;13.00;10.00;;;;;;;15.42;100.00;99281.88;10432825;28;20225;-80
2021/07/20 02:49:24;;;;;;;16.43;10.10;;;;;;;15.41;100.00;99291.38;10405533;28;20188;-78
2021/07/20 02:54:43;;;;;;;14.67;10.77;;;;;;;15.20;100.00;99283.44;10405363;28;20180;-77
2021/07/20 03:00:06;;;;;;;12.93;10.30;;;;;;;15.30;100.00;99281.72;10418815;28;20234;-79
2021/07/20 03:05:25;;;;;;;14.87;9.87;;;;;;;15.23;100.00;99290.09;10405039;28;20173;-80
2021/07/20 03:10:45;;;;;;;14.03;10.03;;;;;;;15.02;100.00;99292.53;10420024;28;20615;-77
2021/07/20 03:16:08;;;;;;;14.57;10.83;;;;;;;15.10;100.00;99289.19;10415568;28;20176;-79
2021/07/20 03:21:28;;;;;;;13.40;9.70;;;;;;;15.30;100.00;99288.03;10419461;28;20598;-77
2021/07/20 03:26:48;;;;;;;15.07;10.53;;;;;;;15.32;100.00;99291.16;10419240;28;20627;-78
2021/07/20 03:32:16;;;;;;;13.17;10.10;;;;;;;15.25;100.00;99298.81;10418137;28;20232;-79
2021/07/20 03:37:35;;;;;;;14.30;10.43;;;;;;;15.07;100.00;99292.78;10403773;28;20271;-77
2021/07/20 03:42:56;;;;;;;16.50;10.90;;;;;;;15.04;100.00;99288.13;10417332;28;20180;-79
2021/07/20 03:48:17;;;;;;;16.53;11.80;;;;;;;15.09;100.00;99284.06;10418330;28;20622;-79
2021/07/20 03:53:36;;;;;;;22.63;10.90;;;;;;;15.11;100.00;99289.94;10416490;28;20216;-78
2021/07/20 03:58:58;;;;;;;14.80;10.00;;;;;;;15.10;100.00;99300.28;10416628;28;20180;-78
2021/07/20 04:04:19;;;;;;;15.53;11.17;;;;;;;15.04;100.00;99292.84;10418025;28;20183;-77
2021/07/20 04:09:39;;;;;;;14.57;10.27;;;;;;;15.00;100.00;99304.00;10417504;28;20176;-77
2021/07/20 04:14:59;;;;;;;13.00;9.70;;;;;;;15.02;100.00;99309.91;10453016;28;20183;-79
2021/07/20 04:20:18;;;;;;;16.57;9.90;;;;;;;15.07;100.00;99306.66;10458423;28;20645;-77
2021/07/20 04:25:41;;;;;;;18.40;10.83;;;;;;;15.15;100.00;99314.41;10458110;28;20187;-77
2021/07/20 04:31:02;;;;;;;16.03;10.80;;;;;;;15.16;100.00;99318.75;10455772;28;20760;-78
2021/07/20 04:36:22;;;;;;;15.70;10.20;;;;;;;15.30;100.00;99315.75;10457649;28;20191;-79
2021/07/20 04:41:41;;;;;;;16.00;10.40;;;;;;;15.20;100.00;99316.69;10444619;28;20658;-77
2021/07/20 04:47:00;;;;;;;28.77;11.63;;;;;;;15.17;100.00;99314.78;10400124;28;20187;-77
2021/07/20 04:52:20;;;;;;;18.33;10.63;;;;;;;15.29;100.00;99316.19;10415585;28;20196;-77
2021/07/20 04:57:39;;;;;;;14.33;10.80;;;;;;;15.37;100.00;99318.38;10414231;28;20626;-78
2021/07/20 05:03:00;;;;;;;21.93;10.70;;;;;;;15.42;100.00;99314.34;10415249;28;20262;-79
2021/07/20 05:08:21;;;;;;;20.27;11.47;;;;;;;15.57;100.00;99321.16;10400516;28;20176;-78
2021/07/20 05:13:41;;;;;;;14.63;10.90;;;;;;;15.75;100.00;99329.91;10426761;28;20203;-79
2021/07/20 05:19:02;;;;;;;14.30;10.00;;;;;;;15.98;100.00;99319.50;10441320;28;20265;-77
2021/07/20 05:24:21;;;;;;;15.73;10.87;;;;;;;16.15;100.00;99321.91;10456137;28;20650;-77
2021/07/20 05:29:46;;;;;;;19.27;10.93;;;;;;;16.37;98.39;99330.56;10454406;28;20306;-78
2021/07/20 05:35:09;;;;;;;14.70;10.57;;;;;;;16.58;99.05;99341.16;10456066;28;20258;-76
2021/07/20 05:40:28;;;;;;;16.97;10.70;;;;;;;16.90;96.02;99342.72;10450815;28;20266;-78
2021/07/20 05:45:48;;;;;;;16.03;10.87;;;;;;;17.10;96.11;99339.84;10413283;28;20630;-77
2021/07/20 05:51:07;;;;;;;13.90;10.77;;;;;;;17.25;93.33;99344.63;10414159;28;20286;-77
2021/07/20 05:56:31;;;;;;;19.00;9.97;;;;;;;17.53;92.56;99341.09;10399415;28;20180;-77
2021/07/20 06:01:51;;;;;;;17.40;11.47;;;;;;;17.85;89.96;99347.34;10412955;28;20617;-77
2021/07/20 06:07:12;;;;;;;11.70;10.23;;;;;;;18.15;88.32;99346.06;10414300;28;20176;-78
2021/07/20 06:12:33;;;;;;;15.57;9.13;;;;;;;18.39;84.17;99347.34;10433563;28;20207;-79
2021/07/20 06:17:53;;;;;;;13.60;9.57;;;;;;;18.76;83.17;99350.13;10446774;28;20175;-79
2021/07/20 06:23:12;;;;;;;14.73;9.50;;;;;;;19.03;81.26;99356.00;10463001;28;20637;-78
2021/07/20 06:28:32;;;;;;;15.37;9.60;;;;;;;19.24;77.31;99342.94;10461106;28;20223;-79
2021/07/20 06:33:54;;;;;;;10.60;8.43;;;;;;;19.47;76.17;99353.69;10446837;28;20203;-79
2021/07/20 06:39:13;;;;;;;10.73;9.00;;;;;;;19.77;74.41;99357.81;10447405;28;20175;-79
2021/07/20 06:44:35;;;;;;;10.87;8.63;;;;;;;20.35;72.57;99359.59;10404655;28;20218;-79
2021/07/20 06:49:57;;;;;;;13.93;9.50;;;;;;;20.38;70.73;99370.66;10420487;28;20261;-79
2021/07/20 06:55:17;;;;;;;10.80;8.73;;;;;;;20.18;69.77;99367.44;10420648;28;20183;-79
2021/07/20 07:00:36;;;;;;;17.00;8.30;;;;;;;20.06;71.21;99367.50;10419066;28;20172;-78
2021/07/20 07:05:59;;;;;;;17.03;10.47;;;;;;;20.01;70.85;99368.09;10405101;28;20179;-78
2021/07/20 07:11:18;;;;;;;16.17;10.07;;;;;;;20.44;68.67;99366.00;10417792;28;20325;-76
2021/07/20 07:16:42;;;;;;;13.47;9.30;;;;;;;20.98;68.57;99371.88;10444129;28;20175;-77
2021/07/20 07:22:02;;;;;;;16.67;8.43;;;;;;;21.51;63.50;99374.00;10460627;28;20548;-77
2021/07/20 07:27:23;;;;;;;12.83;8.87;;;;;;;21.88;62.56;99381.97;10443606;28;20199;-77
2021/07/20 07:32:42;;;;;;;10.10;8.40;;;;;;;22.38;60.91;99374.91;10459850;28;20684;-77
2021/07/20 07:38:02;;;;;;;10.67;8.67;;;;;;;22.44;61.49;99382.22;10459986;28;20183;-78
2021/07/20 07:43:25;;;;;;;11.10;8.00;;;;;;;23.03;59.58;99375.72;10428054;28;20258;-77
2021/07/20 07:48:45;;;;;;;11.63;8.17;;;;;;;23.14;57.30;99381.63;10418558;28;20176;-78
2021/07/20 07:54:04;;;;;;;13.23;7.70;;;;;;;23.20;55.69;99369.28;10402635;28;20211;-77
2021/07/20 07:59:26;;;;;;;18.77;8.10;;;;;;;22.94;54.46;99379.38;10416878;28;20176;-76
2021/07/20 08:04:47;;;;;;;10.40;7.40;;;;;;;22.50;57.53;99383.91;10417697;28;20647;-76
2021/07/20 08:10:08;;;;;;;11.00;7.57;;;;;;;22.70;53.75;99383.34;10422486;28;20194;-76
2021/07/20 08:15:27;;;;;;;9.50;7.53;;;;;;;23.02;59.24;99379.81;10409413;28;20176;-77
2021/07/20 08:20:47;;;;;;;11.00;8.33;;;;;;;24.36;51.74;99367.53;10401865;28;20199;-77
2021/07/20 08:26:22;;;;;;;11.27;7.90;;;;;;;25.53;46.39;99364.78;10402023;28;20214;-78
2021/07/20 08:32:02;;;;;;;11.30;8.17;;;;;;;26.04;45.95;99359.25;10414720;28;20644;-79
2021/07/20 08:37:22;;;;;;;9.50;7.97;;;;;;;26.54;45.91;99366.97;10400971;28;20726;-81
2021/07/20 08:42:54;;;;;;;9.30;6.60;;;;;;;27.27;42.95;99372.66;10400807;28;20168;-80
2021/07/20 08:48:21;;;;;;;12.40;8.10;;;;;;;27.58;40.25;99370.50;10416178;28;20255;-79
2021/07/20 08:53:51;;;;;;;10.03;8.27;;;;;;;28.14;42.01;99366.63;10400148;28;20204;-79
2021/07/20 08:59:18;;;;;;;11.17;8.30;;;;;;;26.91;43.24;99362.91;10414152;28;20222;-79
2021/07/20 09:04:45;;;;;;;10.73;8.20;;;;;;;26.84;43.46;99363.34;10415250;28;20176;-79
2021/07/20 09:10:10;;;;;;;9.30;7.70;;;;;;;25.82;46.46;99356.97;10415093;28;20294;-79
2021/07/20 09:15:32;;;;;;;8.40;7.60;;;;;;;25.13;46.77;99364.75;10406599;28;20180;-80
2021/07/20 09:20:56;;;;;;;14.60;7.97;;;;;;;24.48;49.24;99360.88;10415035;28;20180;-79
2021/07/20 09:26:21;;;;;;;8.93;7.97;;;;;;;23.83;48.85;99366.81;10399821;28;20676;-79
2021/07/20 09:31:46;;;;;;;13.50;8.77;;;;;;;23.33;50.55;99374.66;10412959;28;20314;-79
2021/07/20 09:37:09;;;;;;;15.07;9.83;;;;;;;23.28;51.26;99369.69;10414710;28;20176;-79
2021/07/20 09:42:42;;;;;;;10.30;8.70;;;;;;;24.31;49.16;99365.44;10418872;28;20198;-80
2021/07/20 09:48:26;;;;;;;12.37;8.23;;;;;;;26.26;45.88;99363.09;10440332;28;20681;-80
2021/07/20 09:54:22;;;;;;;9.73;8.30;;;;;;;27.29;39.66;99359.59;10463543;28;20565;-81
2021/07/20 09:59:53;;;;;;;11.90;9.60;;;;;;;28.54;36.20;99358.47;10462528;28;20172;-78
2021/07/20 10:05:17;;;;;;;11.73;8.80;;;;;;;28.35;39.46;99349.69;10461749;28;20637;-78
2021/07/20 10:10:47;;;;;;;12.10;9.30;;;;;;;28.26;37.20;99359.75;10463224;28;20239;-79
2021/07/20 10:16:26;;;;;;;10.33;9.23;;;;;;;29.25;33.35;99341.41;10427023;28;20187;-79
2021/07/20 10:21:49;;;;;;;11.93;7.83;;;;;;;30.37;33.77;99339.88;10421786;28;20184;-79
2021/07/20 10:27:15;;;;;;;11.30;9.33;;;;;;;28.87;36.25;99339.44;10420427;28;20191;-79
2021/07/20 10:32:48;;;;;;;10.97;8.17;;;;;;;30.55;34.38;99341.31;10420675;28;20212;-79
2021/07/20 10:38:11;;;;;;;11.63;9.87;;;;;;;30.33;32.22;99330.88;10421331;28;20626;-79
2021/07/20 10:43:41;;;;;;;10.30;9.20;;;;;;;31.35;32.45;99323.22;10397360;28;20168;-79
2021/07/20 10:49:15;;;;;;;9.73;8.77;;;;;;;30.78;31.81;99332.84;10461897;28;20187;-79
2021/07/20 10:54:45;;;;;;;11.40;10.20;;;;;;;28.13;35.59;99337.56;10460967;28;20665;-79
2021/07/20 11:00:14;;;;;;;10.60;9.20;;;;;;;26.36;39.48;99338.28;10459167;28;20646;-78
2021/07/20 11:05:37;;;;;;;12.70;9.60;;;;;;;25.38;41.11;99338.72;10461312;28;20168;-79
2021/07/20 11:10:58;;;;;;;12.47;9.40;;;;;;;25.48;42.98;99342.94;10460925;28;20211;-78
2021/07/20 11:16:20;;;;;;;13.70;9.07;;;;;;;26.72;38.43;99327.88;10430078;28;20184;-79
2021/07/20 11:21:43;;;;;;;9.80;8.77;;;;;;;28.45;37.10;99322.69;10419464;28;20180;-79
2021/07/20 11:27:04;;;;;;;10.60;8.63;;;;;;;30.02;33.28;99317.16;10418973;28;20192;-79
2021/07/20 11:32:27;;;;;;;12.30;9.33;;;;;;;32.01;29.66;99321.09;10418274;28;20600;-79
2021/07/20 11:38:04;;;;;;;10.07;8.97;;;;;;;29.99;32.67;99315.38;10418775;28;20172;-78
2021/07/20 11:43:32;;;;;;;11.20;9.07;;;;;;;29.28;31.31;99323.38;10422589;28;20562;-79
2021/07/20 11:49:04;;;;;;;11.70;9.37;;;;;;;30.98;29.19;99321.03;10459553;28;20262;-78
2021/07/20 11:54:26;;;;;;;11.67;10.10;;;;;;;30.11;29.84;99314.00;10458643;28;20203;-79
2021/07/20 12:00:05;;;;;;;9.77;8.77;;;;;;;30.15;29.85;99316.56;10457925;28;20167;-79
2021/07/20 12:05:38;;;;;;;11.03;9.33;;;;;;;28.80;34.55;99322.19;10459058;28;20637;-78
2021/07/20 12:11:13;;;;;;;10.70;8.77;;;;;;;29.00;35.18;99308.50;10458437;28;20665;-78
2021/07/20 12:16:41;;;;;;;10.27;9.27;;;;;;;28.50;36.65;99309.81;10440116;28;20203;-79
2021/07/20 12:22:08;;;;;;;9.97;8.90;;;;;;;27.63;36.77;99304.75;10458043;28;20258;-78
2021/07/20 12:27:27;;;;;;;10.47;8.20;;;;;;;27.61;37.04;99302.44;10456590;28;20203;-78
2021/07/20 12:32:46;;;;;;;9.80;8.87;;;;;;;28.56;36.46;99302.09;10457482;28;20226;-80
2021/07/20 12:38:09;;;;;;;9.77;8.30;;;;;;;28.41;36.65;99298.75;10457592;28;20183;-78
2021/07/20 12:43:28;;;;;;;14.23;8.90;;;;;;;27.27;37.98;99299.97;10433020;28;20180;-79
2021/07/20 12:48:52;;;;;;;11.37;8.30;;;;;;;27.12;38.44;99309.91;10451309;28;20661;-80
2021/07/20 12:54:11;;;;;;;18.70;8.50;;;;;;;26.96;36.20;99299.25;10456475;28;20590;-78
2021/07/20 12:59:38;;;;;;;11.90;8.50;;;;;;;29.51;32.60;99280.28;10455667;28;20179;-79
2021/07/20 13:04:57;;;;;;;9.07;8.17;;;;;;;28.90;36.25;99287.44;10456654;28;20175;-79
2021/07/20 13:10:17;;;;;;;9.03;8.20;;;;;;;30.98;32.01;99275.53;10456352;28;20271;-80
2021/07/20 13:15:36;;;;;;;9.00;8.20;;;;;;;29.21;34.09;99276.50;10423441;28;20189;-80
2021/07/20 13:21:00;;;;;;;9.40;8.50;;;;;;;28.06;36.94;99272.22;10456360;28;20211;-79
2021/07/20 13:26:23;;;;;;;9.97;8.83;;;;;;;29.82;34.27;99281.91;10455711;28;20187;-79
2021/07/20 13:31:44;;;;;;;10.07;8.20;;;;;;;29.92;33.74;99272.59;10454113;28;20681;-78
2021/07/20 13:37:04;;;;;;;11.70;8.97;;;;;;;28.06;33.20;99275.84;10455791;28;20187;-78
2021/07/20 13:42:23;;;;;;;8.80;7.90;;;;;;;27.78;36.06;99279.91;10452987;28;20206;-78
2021/07/20 13:47:45;;;;;;;8.20;7.40;;;;;;;29.55;34.92;99275.09;10414806;28;20188;-77
2021/07/20 13:53:09;;;;;;;9.53;8.63;;;;;;;31.25;32.12;99279.44;10414049;28;20559;-77
2021/07/20 13:58:31;;;;;;;12.80;7.73;;;;;;;31.11;31.77;99274.91;10413174;28;20184;-76
2021/07/20 14:03:53;;;;;;;9.23;8.43;;;;;;;31.70;30.75;99270.59;10414269;28;20251;-78
2021/07/20 14:09:13;;;;;;;8.30;7.50;;;;;;;30.30;32.50;99277.97;10414207;28;20643;-77
2021/07/20 14:14:33;;;;;;;9.33;7.73;;;;;;;30.47;29.96;99270.13;10424230;28;20227;-76
2021/07/20 14:19:53;;;;;;;16.93;8.00;;;;;;;30.16;29.91;99284.03;10414137;28;20187;-76
2021/07/20 14:25:12;;;;;;;8.50;7.70;;;;;;;31.80;30.12;99266.06;10413866;28;20188;-77
2021/07/20 14:30:33;;;;;;;12.37;8.37;;;;;;;32.09;30.42;99264.34;10411942;28;20624;-75
2021/07/20 14:35:52;;;;;;;8.20;7.40;;;;;;;31.62;29.03;99259.59;10400184;28;20255;-79
2021/07/20 14:41:14;;;;;;;9.00;8.20;;;;;;;31.23;30.48;99270.66;10421016;28;20192;-77
2021/07/20 14:46:42;;;;;;;9.10;8.30;;;;;;;30.12;32.63;99264.47;10457011;28;20266;-75
2021/07/20 14:52:01;;;;;;;9.27;8.10;;;;;;;30.05;32.38;99267.84;10459852;28;20207;-76
2021/07/20 14:57:33;;;;;;;9.80;8.80;;;;;;;29.68;31.21;99258.28;10460476;28;20187;-77
2021/07/20 15:02:52;;;;;;;9.77;7.87;;;;;;;29.85;33.22;99258.16;10446417;28;20270;-77
2021/07/20 15:08:11;;;;;;;8.37;7.43;;;;;;;30.39;32.18;99260.59;10446076;28;20183;-77
2021/07/20 15:13:36;;;;;;;8.67;7.87;;;;;;;29.51;34.27;99262.47;10459341;28;20203;-75
2021/07/20 15:19:15;;;;;;;9.07;8.17;;;;;;;29.27;32.75;99270.81;10456288;28;20208;-76
2021/07/20 15:24:38;;;;;;;7.57;6.90;;;;;;;30.14;30.13;99267.53;10404370;28;20200;-75
2021/07/20 15:29:58;;;;;;;8.20;7.40;;;;;;;29.68;33.27;99268.84;10402667;28;20224;-76
2021/07/20 15:35:17;;;;;;;8.00;7.30;;;;;;;29.57;32.88;99269.69;10419058;28;20526;-76
2021/07/20 15:40:36;;;;;;;9.23;8.30;;;;;;;30.59;32.29;99262.28;10404029;28;20247;-77
2021/07/20 15:45:57;;;;;;;8.33;7.53;;;;;;;30.26;31.47;99271.84;10417254;28;20168;-76
2021/07/20 15:51:18;;;;;;;8.73;7.83;;;;;;;29.35;30.82;99266.94;10428972;28;20207;-76
2021/07/20 15:56:39;;;;;;;11.73;7.20;;;;;;;29.10;34.12;99267.25;10456183;28;20189;-78
2021/07/20 16:01:58;;;;;;;11.70;7.20;;;;;;;30.14;32.02;99253.34;10416790;28;20626;-78
2021/07/20 16:07:17;;;;;;;7.57;6.97;;;;;;;30.66;32.09;99268.16;10402570;28;20184;-79
2021/07/20 16:12:41;;;;;;;11.27;8.03;;;;;;;30.77;32.09;99272.94;10416065;28;20204;-79
2021/07/20 16:18:06;;;;;;;8.17;7.50;;;;;;;30.40;31.91;99270.66;10402429;28;20565;-77
2021/07/20 16:23:31;;;;;;;7.83;7.10;;;;;;;29.11;32.54;99271.66;10402064;28;20207;-77
2021/07/20 16:28:50;;;;;;;11.43;7.60;;;;;;;28.47;34.80;99271.25;10415525;28;20219;-78
2021/07/20 16:34:11;;;;;;;7.67;6.97;;;;;;;27.76;35.36;99271.91;10416262;28;20211;-76
2021/07/20 16:39:35;;;;;;;8.10;7.30;;;;;;;28.34;35.43;99268.13;10401649;28;20176;-76
2021/07/20 16:44:57;;;;;;;9.57;7.47;;;;;;;28.59;34.13;99269.94;10400270;28;20168;-77
2021/07/20 16:50:17;;;;;;;7.77;7.00;;;;;;;27.96;35.13;99260.38;10401073;28;20235;-77
2021/07/20 16:55:39;;;;;;;7.90;7.10;;;;;;;27.53;36.20;99267.44;10423566;28;20191;-76
2021/07/20 17:00:59;;;;;;;7.50;6.90;;;;;;;27.84;36.41;99277.84;10454984;28;20569;-77
2021/07/20 17:06:32;;;;;;;8.03;7.37;;;;;;;27.75;35.60;99272.44;10456723;28;20171;-77
2021/07/20 17:11:54;;;;;;;7.50;6.80;;;;;;;27.82;35.83;99289.69;10423533;28;20208;-75
2021/07/20 17:17:21;;;;;;;12.30;7.40;;;;;;;27.47;37.02;99285.66;10400188;28;20172;-76
2021/07/20 17:22:41;;;;;;;7.37;6.77;;;;;;;27.61;35.27;99298.84;10400168;28;20188;-76
2021/07/20 17:28:17;;;;;;;11.80;7.00;;;;;;;27.03;36.85;99302.44;10413078;28;20224;-75
2021/07/20 17:33:37;;;;;;;10.87;7.00;;;;;;;28.45;35.36;99297.22;10399313;28;20200;-74
2021/07/20 17:39:11;;;;;;;9.57;7.43;;;;;;;29.38;33.64;99299.16;10399535;28;20557;-77
2021/07/20 17:44:37;;;;;;;7.97;7.17;;;;;;;29.38;33.92;99308.41;10398203;28;20188;-75
2021/07/20 17:50:00;;;;;;;8.83;7.90;;;;;;;28.71;35.14;99311.88;10414300;28;20207;-75
2021/07/20 17:55:22;;;;;;;6.63;6.03;;;;;;;27.88;36.38;99318.75;10414176;28;20177;-75
2021/07/20 18:00:41;;;;;;;7.10;6.40;;;;;;;26.41;39.62;99324.28;10413104;28;20183;-75
2021/07/20 18:06:00;;;;;;;7.60;7.00;;;;;;;25.14;43.11;99328.94;10399229;28;20184;-77
2021/07/20 18:11:19;;;;;;;7.30;6.60;;;;;;;24.89;44.44;99328.78;10416485;28;20203;-77
2021/07/20 18:16:38;;;;;;;7.50;6.63;;;;;;;24.23;46.15;99333.34;10420979;28;20176;-75
2021/07/20 18:21:57;;;;;;;6.77;5.90;;;;;;;24.00;47.28;99339.03;10421949;28;20255;-76
2021/07/20 18:27:16;;;;;;;7.23;6.27;;;;;;;23.49;49.00;99344.91;10405617;28;20180;-76
2021/07/20 18:32:35;;;;;;;6.93;6.33;;;;;;;23.26;50.02;99347.72;10445596;28;20246;-75
2021/07/20 18:37:54;;;;;;;8.53;6.03;;;;;;;22.92;50.91;99350.25;10421404;28;20176;-76
2021/07/20 18:43:13;;;;;;;9.00;7.30;;;;;;;22.58;51.99;99353.50;10404877;28;20184;-77
2021/07/20 18:48:33;;;;;;;6.90;6.30;;;;;;;22.48;52.57;99366.00;10405995;28;20176;-77
2021/07/20 18:53:52;;;;;;;8.33;7.03;;;;;;;22.26;53.75;99367.41;10406102;28;20208;-78
2021/07/20 18:59:11;;;;;;;8.40;7.47;;;;;;;22.06;54.31;99372.75;10419115;28;20638;-78
2021/07/20 19:04:30;;;;;;;9.33;6.60;;;;;;;21.71;54.99;99383.53;10420295;28;20172;-79
2021/07/20 19:09:48;;;;;;;10.00;7.53;;;;;;;21.36;56.74;99383.44;10420199;28;20188;-79
2021/07/20 19:15:08;;;;;;;8.73;6.43;;;;;;;21.07;57.41;99395.03;10418679;28;20180;-79
2021/07/20 19:20:28;;;;;;;7.83;7.00;;;;;;;20.93;57.98;99398.44;10419164;28;20180;-78
2021/07/20 19:25:47;;;;;;;7.03;6.33;;;;;;;20.66;59.48;99407.91;10419625;28;20259;-77
2021/07/20 19:31:06;;;;;;;8.83;6.70;;;;;;;20.49;60.81;99415.75;10417453;28;20235;-80
2021/07/20 19:36:27;;;;;;;12.30;6.57;;;;;;;20.25;62.62;99425.84;10418139;28;20203;-78
2021/07/20 19:41:46;;;;;;;9.57;7.00;;;;;;;20.07;62.93;99436.88;10417308;28;20247;-79
2021/07/20 19:47:05;;;;;;;10.00;7.23;;;;;;;19.99;63.16;99447.97;10417494;28;20589;-79
2021/07/20 19:52:24;;;;;;;9.30;7.27;;;;;;;19.92;63.68;99459.38;10432890;28;20202;-79
2021/07/20 19:57:44;;;;;;;9.37;7.47;;;;;;;19.82;63.31;99455.75;10458278;28;20720;-79
2021/07/20 20:03:03;;;;;;;7.37;6.60;;;;;;;19.65;63.78;99461.91;10423160;28;20219;-79
2021/07/20 20:08:22;;;;;;;9.43;7.13;;;;;;;19.55;63.80;99475.00;10417932;28;20544;-80
2021/07/20 20:13:43;;;;;;;7.57;6.77;;;;;;;19.28;64.29;99473.94;10441335;28;20207;-79
2021/07/20 20:19:02;;;;;;;11.20;6.63;;;;;;;19.13;65.15;99481.19;10458550;28;20195;-79
2021/07/20 20:24:21;;;;;;;9.00;7.13;;;;;;;18.92;66.19;99490.19;10411939;28;20235;-80
2021/07/20 20:29:40;;;;;;;10.80;7.07;;;;;;;18.74;66.98;99494.75;10400106;28;20216;-79
2021/07/20 20:35:00;;;;;;;13.50;6.37;;;;;;;18.62;67.77;99492.69;10436020;28;20599;-78
2021/07/20 20:40:19;;;;;;;9.60;7.27;;;;;;;18.49;68.30;99503.84;10457836;28;20176;-77
2021/07/20 20:45:37;;;;;;;8.93;6.43;;;;;;;18.28;69.21;99503.66;10415468;28;20187;-77
2021/07/20 20:50:56;;;;;;;7.40;6.70;;;;;;;18.19;69.74;99511.03;10417919;28;20231;-78
2021/07/20 20:56:15;;;;;;;9.13;6.60;;;;;;;18.10;69.20;99513.66;10457251;28;20515;-79
2021/07/20 21:01:34;;;;;;;7.67;6.73;;;;;;;17.94;69.76;99514.50;10433471;28;20184;-78
2021/07/20 21:06:53;;;;;;;8.43;6.90;;;;;;;17.82;70.30;99508.88;10415826;28;20670;-78
2021/07/20 21:12:14;;;;;;;7.70;6.80;;;;;;;17.68;71.06;99523.16;10426418;28;20222;-78
2021/07/20 21:17:33;;;;;;;10.17;6.93;;;;;;;17.48;71.64;99519.66;10456641;28;20184;-78
2021/07/20 21:22:52;;;;;;;8.00;6.10;;;;;;;17.30;72.12;99522.09;10439163;28;20721;-77
2021/07/20 21:28:11;;;;;;;8.37;7.30;;;;;;;17.19;72.91;99529.88;10413597;28;20298;-78
2021/07/20 21:33:30;;;;;;;9.60;7.33;;;;;;;17.14;72.91;99522.03;10436344;28;20667;-78
2021/07/20 21:38:49;;;;;;;9.50;7.37;;;;;;;16.98;74.08;99524.78;10440969;28;20171;-79
2021/07/20 21:44:09;;;;;;;9.07;7.07;;;;;;;16.87;74.96;99534.56;10427833;28;20634;-78
2021/07/20 21:49:28;;;;;;;11.63;6.90;;;;;;;16.84;75.10;99539.00;10408441;28;20171;-78
2021/07/20 21:54:47;;;;;;;8.57;7.70;;;;;;;16.80;74.71;99543.84;10454810;28;20661;-78
2021/07/20 22:00:15;;;;;;;8.10;6.80;;;;;;;16.75;74.95;99545.56;10447789;28;20183;-77
2021/07/20 22:05:34;;;;;;;16.33;7.00;;;;;;;16.64;75.25;99553.34;10409836;28;20215;-78
2021/07/20 22:10:53;;;;;;;8.23;6.90;;;;;;;16.54;76.09;99555.13;10422275;28;20203;-78
2021/07/20 22:16:15;;;;;;;9.07;7.60;;;;;;;16.47;76.14;99548.94;10420854;28;20266;-78
2021/07/20 22:21:35;;;;;;;10.07;7.00;;;;;;;16.27;77.20;99545.31;10427011;28;20207;-78
2021/07/20 22:26:54;;;;;;;9.40;7.87;;;;;;;16.18;77.73;99556.19;10423261;28;20184;-78
2021/07/20 22:32:15;;;;;;;14.07;7.47;;;;;;;16.10;78.25;99557.53;10430832;28;20227;-78
2021/07/20 22:37:34;;;;;;;12.93;6.83;;;;;;;16.04;78.52;99548.91;10447716;28;20175;-79
2021/07/20 22:42:54;;;;;;;11.80;7.00;;;;;;;16.02;78.78;99564.44;10445290;28;20278;-77
2021/07/20 22:48:14;;;;;;;7.77;7.00;;;;;;;15.85;78.88;99559.19;10421100;28;20204;-77
2021/07/20 22:53:32;;;;;;;9.50;7.37;;;;;;;15.78;79.65;99551.00;10425991;28;20222;-78
2021/07/20 22:58:52;;;;;;;9.63;7.80;;;;;;;15.74;80.11;99556.63;10459938;28;20171;-78
2021/07/20 23:04:10;;;;;;;10.53;8.30;;;;;;;15.74;81.32;99550.25;10420419;28;20183;-79
2021/07/20 23:09:29;;;;;;;10.20;7.50;;;;;;;15.47;82.81;99552.28;10405406;28;20183;-79
2021/07/20 23:14:48;;;;;;;11.60;8.03;;;;;;;15.35;83.65;99559.22;10448817;28;20206;-78
2021/07/20 23:20:10;;;;;;;10.20;7.90;;;;;;;15.16;84.61;99565.41;10461032;28;20195;-80
2021/07/20 23:25:29;;;;;;;8.10;7.10;;;;;;;15.16;83.99;99568.19;10424552;28;20192;-78
2021/07/20 23:30:49;;;;;;;11.40;8.03;;;;;;;15.11;85.17;99575.38;10417522;28;20581;-78
2021/07/20 23:36:08;;;;;;;10.00;7.23;;;;;;;14.99;86.69;99568.41;10455136;28;20183;-79
2021/07/20 23:41:26;;;;;;;11.00;7.50;;;;;;;14.92;87.19;99567.75;10444630;28;20246;-79
2021/07/20 23:46:45;;;;;;;15.50;8.60;;;;;;;14.77;86.45;99572.69;10417551;28;20658;-79
2021/07/20 23:52:05;;;;;;;10.17;7.83;;;;;;;14.60;88.62;99572.91;10404922;28;20207;-78
2021/07/20 23:57:24;;;;;;;8.40;7.60;;;;;;;14.64;88.40;99568.09;10443385;28;20183;-79
